Lenora, Kansas
Current Conditions -  °F | °C
As of 10:53 AM on Sunday 23 Nov 2014 (Local Time) from KHLC Reporting Station
Overcast Overcast  
Wind Chill: 37°   Ceiling: 7000
Heat Index: 44°   Visibility: 10mi
Dew Point: 34°   Wind: 15mph
Humidity: 68%   Direction: 10°N
Pressure: 29.65"   Gusts: 26mph
Location:  39.61°N, 100°W
Report Text: KHLC 231653Z AUTO 01013G23KT 10SM SCT045 OVC070 07/01 A2965 RMK AO2 PK WND 36039/1557 RAE34 SLP040 P0001 T00670011
Loading
Personal Weather Stations






























Interactive Weather Map New forecast layout! Learn more

10-Day Weather Forecast

Advertisements
Track Severe Weather on mobile